Airfield :
LOGIN :

Register | Disclaimer

   EN    FR    IT 

 










Legend :    VFR   Marginal VFR   IFR   Intensive IFR   Very Intensive IFR
Visi :
Ceiling :
>= 8 km
>= 3000ft
5 to 8 km
1000 to 3000 ft
1500m to 5 km
500 to 1000 ft
800 to 1500m
200 to 500 ft
< 800m
< 200 ft
Symbols :   Thunderstorms  Fog  Heavy snow  Heavy precipitations  Wind > 20 kt
SIGMETs :     Misc.  Thunderstorms  Icing  Turbulence  Mountain Waves  Volcanic Ashes






- Airport Elevation : 357 ft
- IATA code : TUF


LFOT - Tours

CURRENT METAR :
  • 190200Z AUTO 33002KT 1100 0900 R20/1200D BCFG NSC 03/03 Q1018 TEMPO VV///

EXPIRED METARs :
  • 190130Z AUTO 33003KT 3600 1100 R20/1600D BR NSC 03/03 Q1018 TEMPO 0800 FG VV///
  • 190100Z AUTO 33003KT 5000 BR NSC 04/04 Q1018 TEMPO 0800 FG VV///
  • 190030Z AUTO 33003KT 6000 NSC 04/04 Q1018 TEMPO 0800 FG VV///
  • 190000Z AUTO 33003KT 7000 FEW044 05/04 Q1018 TEMPO 0800 FG VV///
  • 182330Z AUTO 31003KT 7000 BKN045 05/04 Q1018 TEMPO 0200 FG VV///

TAF TAF LFOT
Valid from the 19 at 00:00 until the 20 at 00:00 UTC


182300Z 1900/1924 VRB03KT 6000 BKN040
TEMPO 1900/1911 2000 BR BKN004
PROB30
TEMPO 1901/1910 0800 FG VV///
BECMG 1913/1915 SCT025



MET'MAP, your aeronautical weather chart ! - Copyright ORBIFLY December 2007 - Disclaimer

ORBIFLY MET'MAP TEAM :

Programming & Development : Alexandra Zaïnal
Concept & Development : Baudouin d'Aumeries
Co-Development & Prog : Marc-Olivier Méhu
Technical & hardware support : Manuel Goepfert

Contact : metmap@orbifly.com




SOURCES & CREDITS :

   NOAA